sensor_id;sensor_type;location;lat;lon;timestamp;pressure;altitude;pressure_sealevel;temperature;humidity
4836;BME280;66719;51.226;6.902;2023-03-21T00:00:39;100955.47;;;9.26;100.00
4836;BME280;66719;51.226;6.902;2023-03-21T00:03:06;100958.06;;;9.26;100.00
4836;BME280;66719;51.226;6.902;2023-03-21T00:05:38;100950.25;;;9.25;100.00
4836;BME280;66719;51.226;6.902;2023-03-21T00:08:05;100948.50;;;9.25;100.00
4836;BME280;66719;51.226;6.902;2023-03-21T00:10:32;100943.28;;;9.25;100.00
4836;BME280;66719;51.226;6.902;2023-03-21T00:13:13;100945.88;;;9.25;100.00
4836;BME280;66719;51.226;6.902;2023-03-21T00:15:41;100938.06;;;9.24;100.00
4836;BME280;66719;51.226;6.902;2023-03-21T00:18:43;100936.34;;;9.23;100.00
4836;BME280;66719;51.226;6.902;2023-03-21T00:21:14;100930.25;;;9.22;100.00
4836;BME280;66719;51.226;6.902;2023-03-21T00:24:01;100931.13;;;9.23;100.00
4836;BME280;66719;51.226;6.902;2023-03-21T00:26:27;100926.75;;;9.23;100.00
4836;BME280;66719;51.226;6.902;2023-03-21T00:28:54;100928.50;;;9.24;100.00
4836;BME280;66719;51.226;6.902;2023-03-21T00:31:20;100933.72;;;9.23;100.00
4836;BME280;66719;51.226;6.902;2023-03-21T00:33:47;100925.91;;;9.23;100.00
4836;BME280;66719;51.226;6.902;2023-03-21T00:36:14;100926.75;;;9.23;100.00
4836;BME280;66719;51.226;6.902;2023-03-21T00:38:41;100918.94;;;9.22;100.00
4836;BME280;66719;51.226;6.902;2023-03-21T00:41:10;100919.81;;;9.19;100.00
4836;BME280;66719;51.226;6.902;2023-03-21T00:43:51;100917.22;;;9.18;100.00
4836;BME280;66719;51.226;6.902;2023-03-21T00:46:20;100914.59;;;9.19;100.00
4836;BME280;66719;51.226;6.902;2023-03-21T00:48:50;100917.19;;;9.19;100.00
4836;BME280;66719;51.226;6.902;2023-03-21T00:51:21;100913.72;;;9.19;100.00
4836;BME280;66719;51.226;6.902;2023-03-21T00:53:56;100912.84;;;9.21;100.00
4836;BME280;66719;51.226;6.902;2023-03-21T00:56:23;100906.75;;;9.22;100.00
4836;BME280;66719;51.226;6.902;2023-03-21T00:58:49;100902.41;;;9.21;100.00
4836;BME280;66719;51.226;6.902;2023-03-21T01:01:16;100899.78;;;9.21;100.00
4836;BME280;66719;51.226;6.902;2023-03-21T01:03:43;100904.13;;;9.21;100.00
4836;BME280;66719;51.226;6.902;2023-03-21T01:06:17;100899.81;;;9.18;100.00
4836;BME280;66719;51.226;6.902;2023-03-21T01:08:47;100896.31;;;9.18;100.00
4836;BME280;66719;51.226;6.902;2023-03-21T01:11:23;100893.69;;;9.19;100.00
4836;BME280;66719;51.226;6.902;2023-03-21T01:13:51;100898.91;;;9.19;100.00
4836;BME280;66719;51.226;6.902;2023-03-21T01:16:30;100893.69;;;9.19;100.00
4836;BME280;66719;51.226;6.902;2023-03-21T01:18:57;100895.44;;;9.19;100.00
4836;BME280;66719;51.226;6.902;2023-03-21T01:21:25;100894.56;;;9.18;100.00
4836;BME280;66719;51.226;6.902;2023-03-21T01:23:51;100892.88;;;9.16;100.00
4836;BME280;66719;51.226;6.902;2023-03-21T01:26:18;100885.91;;;9.15;100.00
4836;BME280;66719;51.226;6.902;2023-03-21T01:28:45;100878.09;;;9.15;100.00
4836;BME280;66719;51.226;6.902;2023-03-21T01:31:13;100887.66;;;9.14;100.00
4836;BME280;66719;51.226;6.902;2023-03-21T01:33:41;100885.94;;;9.13;100.00
4836;BME280;66719;51.226;6.902;2023-03-21T01:36:12;100872.88;;;9.13;100.00
4836;BME280;66719;51.226;6.902;2023-03-21T01:38:41;100881.59;;;9.14;100.00
4836;BME280;66719;51.226;6.902;2023-03-21T01:41:22;100877.22;;;9.14;100.00
4836;BME280;66719;51.226;6.902;2023-03-21T01:44:06;100877.19;;;9.16;100.00
4836;BME280;66719;51.226;6.902;2023-03-21T01:49:29;100867.56;;;9.19;100.00
4836;BME280;66719;51.226;6.902;2023-03-21T01:52:04;100866.72;;;9.19;100.00
4836;BME280;66719;51.226;6.902;2023-03-21T01:54:41;100869.31;;;9.19;100.00
4836;BME280;66719;51.226;6.902;2023-03-21T01:57:11;100862.38;;;9.18;100.00
4836;BME280;66719;51.226;6.902;2023-03-21T01:59:42;100859.72;;;9.19;100.00
4836;BME280;66719;51.226;6.902;2023-03-21T02:02:14;100853.66;;;9.17;100.00
4836;BME280;66719;51.226;6.902;2023-03-21T02:04:43;100857.16;;;9.18;100.00
4836;BME280;66719;51.226;6.902;2023-03-21T02:07:26;100854.50;;;9.21;100.00
4836;BME280;66719;51.226;6.902;2023-03-21T02:09:54;100857.94;;;9.26;100.00
4836;BME280;66719;51.226;6.902;2023-03-21T02:12:22;100858.75;;;9.31;100.00
4836;BME280;66719;51.226;6.902;2023-03-21T02:14:49;100854.38;;;9.33;100.00
4836;BME280;66719;51.226;6.902;2023-03-21T02:17:34;100852.59;;;9.35;100.00
4836;BME280;66719;51.226;6.902;2023-03-21T02:23:16;100845.59;;;9.39;100.00
4836;BME280;66719;51.226;6.902;2023-03-21T02:26:02;100842.06;;;9.43;100.00
4836;BME280;66719;51.226;6.902;2023-03-21T02:29:00;100837.78;;;9.39;100.00
4836;BME280;66719;51.226;6.902;2023-03-21T02:35:00;100824.78;;;9.32;100.00
4836;BME280;66719;51.226;6.902;2023-03-21T02:37:40;100804.78;;;9.30;100.00
4836;BME280;66719;51.226;6.902;2023-03-21T02:40:22;100805.63;;;9.29;100.00
4836;BME280;66719;51.226;6.902;2023-03-21T02:42:57;100799.53;;;9.28;100.00
4836;BME280;66719;51.226;6.902;2023-03-21T02:45:44;100805.69;;;9.24;100.00
4836;BME280;66719;51.226;6.902;2023-03-21T02:48:18;100808.28;;;9.26;100.00
4836;BME280;66719;51.226;6.902;2023-03-21T02:50:58;100794.38;;;9.25;100.00
4836;BME280;66719;51.226;6.902;2023-03-21T02:53:30;100797.88;;;9.24;100.00
4836;BME280;66719;51.226;6.902;2023-03-21T02:56:00;100799.63;;;9.22;100.00
4836;BME280;66719;51.226;6.902;2023-03-21T02:58:29;100795.28;;;9.20;100.00
4836;BME280;66719;51.226;6.902;2023-03-21T03:00:57;100795.28;;;9.20;100.00
4836;BME280;66719;51.226;6.902;2023-03-21T03:03:23;100783.97;;;9.19;100.00
4836;BME280;66719;51.226;6.902;2023-03-21T03:06:00;100792.69;;;9.18;100.00
4836;BME280;66719;51.226;6.902;2023-03-21T03:11:25;100795.28;;;9.23;100.00
4836;BME280;66719;51.226;6.902;2023-03-21T03:22:27;100792.69;;;9.18;100.00
4836;BME280;66719;51.226;6.902;2023-03-21T03:25:02;100795.34;;;9.17;100.00
4836;BME280;66719;51.226;6.902;2023-03-21T03:27:50;100785.81;;;9.14;100.00
4836;BME280;66719;51.226;6.902;2023-03-21T03:30:18;100779.72;;;9.11;100.00
4836;BME280;66719;51.226;6.902;2023-03-21T03:32:53;100780.63;;;9.08;100.00
4836;BME280;66719;51.226;6.902;2023-03-21T03:35:22;100771.97;;;9.06;100.00
4836;BME280;66719;51.226;6.902;2023-03-21T03:37:53;100770.25;;;9.02;100.00
4836;BME280;66719;51.226;6.902;2023-03-21T03:40:31;100774.63;;;9.01;100.00
4836;BME280;66719;51.226;6.902;2023-03-21T03:43:09;100773.75;;;9.01;100.00
4836;BME280;66719;51.226;6.902;2023-03-21T03:45:42;100768.56;;;8.98;100.00
4836;BME280;66719;51.226;6.902;2023-03-21T03:50:58;100772.09;;;8.94;100.00
4836;BME280;66719;51.226;6.902;2023-03-21T03:56:00;100765.16;;;8.91;100.00
4836;BME280;66719;51.226;6.902;2023-03-21T03:58:28;100762.56;;;8.91;100.00
4836;BME280;66719;51.226;6.902;2023-03-21T04:01:10;100756.47;;;8.89;100.00
4836;BME280;66719;51.226;6.902;2023-03-21T04:03:39;100752.16;;;8.88;100.00
4836;BME280;66719;51.226;6.902;2023-03-21T04:06:16;100754.78;;;8.87;100.00
4836;BME280;66719;51.226;6.902;2023-03-21T04:08:43;100747.81;;;8.86;100.00
4836;BME280;66719;51.226;6.902;2023-03-21T04:11:12;100746.94;;;8.85;100.00
4836;BME280;66719;51.226;6.902;2023-03-21T04:13:40;100747.81;;;8.87;100.00
4836;BME280;66719;51.226;6.902;2023-03-21T04:16:07;100740.84;;;8.88;100.00
4836;BME280;66719;51.226;6.902;2023-03-21T04:18:34;100737.34;;;8.89;100.00
4836;BME280;66719;51.226;6.902;2023-03-21T04:21:01;100743.38;;;8.92;100.00
4836;BME280;66719;51.226;6.902;2023-03-21T04:23:28;100742.50;;;8.93;100.00
4836;BME280;66719;51.226;6.902;2023-03-21T04:25:55;100742.50;;;8.95;100.00
4836;BME280;66719;51.226;6.902;2023-03-21T04:28:22;100746.84;;;8.94;100.00
4836;BME280;66719;51.226;6.902;2023-03-21T04:30:49;100748.59;;;8.95;100.00
4836;BME280;66719;51.226;6.902;2023-03-21T04:33:30;100732.94;;;8.95;100.00
4836;BME280;66719;51.226;6.902;2023-03-21T04:35:56;100745.97;;;8.97;100.00
4836;BME280;66719;51.226;6.902;2023-03-21T04:38:25;100739.00;;;8.96;100.00
4836;BME280;66719;51.226;6.902;2023-03-21T04:40:56;100746.81;;;8.97;100.00
4836;BME280;66719;51.226;6.902;2023-03-21T04:43:23;100743.31;;;8.98;100.00
4836;BME280;66719;51.226;6.902;2023-03-21T04:45:50;100745.03;;;8.99;100.00
4836;BME280;66719;51.226;6.902;2023-03-21T04:48:17;100751.97;;;9.03;100.00
4836;BME280;66719;51.226;6.902;2023-03-21T04:50:45;100749.38;;;9.02;100.00
4836;BME280;66719;51.226;6.902;2023-03-21T04:53:12;100755.47;;;9.01;100.00
4836;BME280;66719;51.226;6.902;2023-03-21T04:55:38;100747.63;;;9.01;100.00
4836;BME280;66719;51.226;6.902;2023-03-21T04:58:05;100743.28;;;9.00;100.00
4836;BME280;66719;51.226;6.902;2023-03-21T05:00:32;100739.81;;;9.01;100.00
4836;BME280;66719;51.226;6.902;2023-03-21T05:03:06;100731.94;;;9.02;100.00
4836;BME280;66719;51.226;6.902;2023-03-21T05:05:36;100727.59;;;9.03;100.00
4836;BME280;66719;51.226;6.902;2023-03-21T05:08:04;100728.50;;;9.00;100.00
4836;BME280;66719;51.226;6.902;2023-03-21T05:10:31;100731.09;;;9.03;100.00
4836;BME280;66719;51.226;6.902;2023-03-21T05:12:57;100726.72;;;9.04;100.00
4836;BME280;66719;51.226;6.902;2023-03-21T05:15:24;100733.69;;;9.05;100.00
4836;BME280;66719;51.226;6.902;2023-03-21T05:17:50;100725.81;;;9.06;100.00
4836;BME280;66719;51.226;6.902;2023-03-21T05:20:17;100735.41;;;9.06;100.00
4836;BME280;66719;51.226;6.902;2023-03-21T05:22:44;100738.91;;;9.05;100.00
4836;BME280;66719;51.226;6.902;2023-03-21T05:25:12;100733.66;;;9.06;100.00
4836;BME280;66719;51.226;6.902;2023-03-21T05:27:38;100737.97;;;9.09;100.00
4836;BME280;66719;51.226;6.902;2023-03-21T05:30:14;100741.41;;;9.11;100.00
4836;BME280;66719;51.226;6.902;2023-03-21T05:32:41;100737.06;;;9.10;100.00
4836;BME280;66719;51.226;6.902;2023-03-21T05:35:09;100740.56;;;9.09;100.00
4836;BME280;66719;51.226;6.902;2023-03-21T05:37:36;100739.72;;;9.09;100.00
4836;BME280;66719;51.226;6.902;2023-03-21T05:40:04;100732.75;;;9.09;100.00
4836;BME280;66719;51.226;6.902;2023-03-21T05:42:32;100731.84;;;9.10;100.00
4836;BME280;66719;51.226;6.902;2023-03-21T05:44:59;100735.31;;;9.11;100.00
4836;BME280;66719;51.226;6.902;2023-03-21T05:47:25;100730.09;;;9.11;100.00
4836;BME280;66719;51.226;6.902;2023-03-21T05:49:52;100733.59;;;9.10;100.00
4836;BME280;66719;51.226;6.902;2023-03-21T05:52:19;100737.06;;;9.10;100.00
4836;BME280;66719;51.226;6.902;2023-03-21T05:54:45;100731.03;;;9.06;100.00
4836;BME280;66719;51.226;6.902;2023-03-21T05:57:12;100733.66;;;9.06;100.00
4836;BME280;66719;51.226;6.902;2023-03-21T05:59:38;100736.25;;;9.08;100.00
4836;BME280;66719;51.226;6.902;2023-03-21T06:02:05;100735.41;;;9.06;100.00
4836;BME280;66719;51.226;6.902;2023-03-21T06:04:31;100730.19;;;9.06;100.00
4836;BME280;66719;51.226;6.902;2023-03-21T06:06:58;100731.06;;;9.05;100.00
4836;BME280;66719;51.226;6.902;2023-03-21T06:09:24;100738.03;;;9.04;100.00
4836;BME280;66719;51.226;6.902;2023-03-21T06:11:52;100729.34;;;9.04;100.00
4836;BME280;66719;51.226;6.902;2023-03-21T06:14:21;100735.41;;;9.06;100.00
4836;BME280;66719;51.226;6.902;2023-03-21T06:16:48;100730.19;;;9.06;100.00
4836;BME280;66719;51.226;6.902;2023-03-21T06:19:14;100729.34;;;9.04;100.00
4836;BME280;66719;51.226;6.902;2023-03-21T06:21:41;100724.97;;;9.04;100.00
4836;BME280;66719;51.226;6.902;2023-03-21T06:24:08;100719.75;;;9.03;100.00
4836;BME280;66719;51.226;6.902;2023-03-21T06:26:35;100725.84;;;9.05;100.00
4836;BME280;66719;51.226;6.902;2023-03-21T06:29:02;100723.22;;;9.05;100.00
4836;BME280;66719;51.226;6.902;2023-03-21T06:31:29;100724.97;;;9.06;100.00
4836;BME280;66719;51.226;6.902;2023-03-21T06:33:56;100722.34;;;9.06;100.00
4836;BME280;66719;51.226;6.902;2023-03-21T06:36:22;100725.81;;;9.06;100.00
4836;BME280;66719;51.226;6.902;2023-03-21T06:38:49;100724.94;;;9.07;100.00
4836;BME280;66719;51.226;6.902;2023-03-21T06:41:15;100725.78;;;9.10;100.00
4836;BME280;66719;51.226;6.902;2023-03-21T06:43:42;100724.03;;;9.10;100.00
4836;BME280;66719;51.226;6.902;2023-03-21T06:46:09;100720.53;;;9.11;100.00
4836;BME280;66719;51.226;6.902;2023-03-21T06:48:36;100726.59;;;9.12;100.00
4836;BME280;66719;51.226;6.902;2023-03-21T06:51:04;100726.59;;;9.12;100.00
4836;BME280;66719;51.226;6.902;2023-03-21T06:53:31;100729.22;;;9.13;100.00
4836;BME280;66719;51.226;6.902;2023-03-21T06:56:01;100724.81;;;9.17;100.00
4836;BME280;66719;51.226;6.902;2023-03-21T06:58:27;100729.19;;;9.16;100.00
4836;BME280;66719;51.226;6.902;2023-03-21T07:00:57;100734.34;;;9.19;100.00
4836;BME280;66719;51.226;6.902;2023-03-21T07:03:24;100729.13;;;9.19;100.00
4836;BME280;66719;51.226;6.902;2023-03-21T07:05:51;100744.78;;;9.22;100.00
4836;BME280;66719;51.226;6.902;2023-03-21T07:08:17;100742.13;;;9.25;100.00
4836;BME280;66719;51.226;6.902;2023-03-21T07:10:44;100734.25;;;9.27;100.00
4836;BME280;66719;51.226;6.902;2023-03-21T07:13:12;100740.34;;;9.27;100.00
4836;BME280;66719;51.226;6.902;2023-03-21T07:15:39;100742.06;;;9.28;100.00
4836;BME280;66719;51.226;6.902;2023-03-21T07:18:08;100744.69;;;9.28;100.00
4836;BME280;66719;51.226;6.902;2023-03-21T07:20:35;100749.88;;;9.31;100.00
4836;BME280;66719;51.226;6.902;2023-03-21T07:23:04;100756.81;;;9.34;100.00
4836;BME280;66719;51.226;6.902;2023-03-21T07:25:30;100753.31;;;9.35;100.00
4836;BME280;66719;51.226;6.902;2023-03-21T07:27:57;100757.63;;;9.38;100.00
4836;BME280;66719;51.226;6.902;2023-03-21T07:30:23;100754.16;;;9.39;100.00
4836;BME280;66719;51.226;6.902;2023-03-21T07:32:50;100752.41;;;9.38;100.00
4836;BME280;66719;51.226;6.902;2023-03-21T07:35:18;100752.38;;;9.41;100.00
4836;BME280;66719;51.226;6.902;2023-03-21T07:37:45;100742.81;;;9.40;100.00
4836;BME280;66719;51.226;6.902;2023-03-21T07:40:11;100732.31;;;9.43;100.00
4836;BME280;66719;51.226;6.902;2023-03-21T07:42:39;100718.34;;;9.44;100.00
4836;BME280;66719;51.226;6.902;2023-03-21T07:45:07;100726.19;;;9.44;100.00
4836;BME280;66719;51.226;6.902;2023-03-21T07:47:35;100718.31;;;9.45;100.00
4836;BME280;66719;51.226;6.902;2023-03-21T07:50:02;100715.69;;;9.48;100.00
4836;BME280;66719;51.226;6.902;2023-03-21T07:52:31;100722.63;;;9.51;100.00
4836;BME280;66719;51.226;6.902;2023-03-21T07:54:58;100715.59;;;9.56;100.00
4836;BME280;66719;51.226;6.902;2023-03-21T07:57:25;100715.56;;;9.57;100.00
4836;BME280;66719;51.226;6.902;2023-03-21T07:59:51;100714.66;;;9.58;100.00
4836;BME280;66719;51.226;6.902;2023-03-21T08:02:18;100714.66;;;9.58;100.00
4836;BME280;66719;51.226;6.902;2023-03-21T08:04:45;100717.25;;;9.60;100.00
4836;BME280;66719;51.226;6.902;2023-03-21T08:07:12;100717.25;;;9.60;100.00
4836;BME280;66719;51.226;6.902;2023-03-21T08:09:38;100720.72;;;9.60;100.00
4836;BME280;66719;51.226;6.902;2023-03-21T08:12:05;100725.09;;;9.60;100.00
4836;BME280;66719;51.226;6.902;2023-03-21T08:14:34;100727.69;;;9.60;100.00
4836;BME280;66719;51.226;6.902;2023-03-21T08:17:03;100732.03;;;9.61;100.00
4836;BME280;66719;51.226;6.902;2023-03-21T08:19:30;100732.03;;;9.61;100.00
4836;BME280;66719;51.226;6.902;2023-03-21T08:21:57;100726.81;;;9.61;100.00
4836;BME280;66719;51.226;6.902;2023-03-21T08:24:27;100725.94;;;9.62;100.00
4836;BME280;66719;51.226;6.902;2023-03-21T08:26:54;100724.16;;;9.62;100.00
4836;BME280;66719;51.226;6.902;2023-03-21T08:29:20;100716.34;;;9.62;100.00
4836;BME280;66719;51.226;6.902;2023-03-21T08:31:48;100719.81;;;9.63;100.00
4836;BME280;66719;51.226;6.902;2023-03-21T08:34:14;100721.50;;;9.67;100.00
4836;BME280;66719;51.226;6.902;2023-03-21T08:36:43;100719.75;;;9.68;100.00
4836;BME280;66719;51.226;6.902;2023-03-21T08:39:09;100727.63;;;9.66;100.00
4836;BME280;66719;51.226;6.902;2023-03-21T08:41:36;100725.91;;;9.65;100.00
4836;BME280;66719;51.226;6.902;2023-03-21T08:44:03;100720.63;;;9.68;100.00
4836;BME280;66719;51.226;6.902;2023-03-21T08:46:31;100728.44;;;9.70;100.00
4836;BME280;66719;51.226;6.902;2023-03-21T08:48:58;100732.78;;;9.69;100.00
4836;BME280;66719;51.226;6.902;2023-03-21T08:51:24;100718.84;;;9.70;100.00
4836;BME280;66719;51.226;6.902;2023-03-21T08:53:51;100720.56;;;9.71;100.00
4836;BME280;66719;51.226;6.902;2023-03-21T08:56:17;100720.56;;;9.71;100.00
4836;BME280;66719;51.226;6.902;2023-03-21T08:58:44;100713.59;;;9.73;100.00
4836;BME280;66719;51.226;6.902;2023-03-21T09:01:10;100710.94;;;9.75;100.00
4836;BME280;66719;51.226;6.902;2023-03-21T09:03:42;100704.81;;;9.76;100.00
4836;BME280;66719;51.226;6.902;2023-03-21T09:06:10;100704.75;;;9.79;100.00
4836;BME280;66719;51.226;6.902;2023-03-21T09:08:40;100701.22;;;9.83;100.00
4836;BME280;66719;51.226;6.902;2023-03-21T09:11:08;100697.72;;;9.84;100.00
4836;BME280;66719;51.226;6.902;2023-03-21T09:13:35;100698.50;;;9.89;100.00
4836;BME280;66719;51.226;6.902;2023-03-21T09:16:02;100700.13;;;9.96;100.00
4836;BME280;66719;51.226;6.902;2023-03-21T09:18:30;100701.75;;;10.03;100.00
4836;BME280;66719;51.226;6.902;2023-03-21T09:21:21;100704.31;;;10.08;100.00
4836;BME280;66719;51.226;6.902;2023-03-21T09:23:49;100700.78;;;10.09;100.00
4836;BME280;66719;51.226;6.902;2023-03-21T09:26:18;100698.19;;;10.07;100.00
4836;BME280;66719;51.226;6.902;2023-03-21T09:28:45;100704.28;;;10.09;100.00
4836;BME280;66719;51.226;6.902;2023-03-21T09:31:12;100705.97;;;10.12;100.00
4836;BME280;66719;51.226;6.902;2023-03-21T09:33:42;100701.69;;;10.08;100.00
4836;BME280;66719;51.226;6.902;2023-03-21T09:36:09;100699.91;;;10.10;100.00
4836;BME280;66719;51.226;6.902;2023-03-21T09:38:43;100702.53;;;10.10;100.00
4836;BME280;66719;51.226;6.902;2023-03-21T09:49:15;100707.63;;;10.16;100.00
4836;BME280;66719;51.226;6.902;2023-03-21T09:51:45;100705.88;;;10.18;100.00
4836;BME280;66719;51.226;6.902;2023-03-21T09:54:21;100703.28;;;10.16;100.00
4836;BME280;66719;51.226;6.902;2023-03-21T09:56:55;100703.22;;;10.19;100.00
4836;BME280;66719;51.226;6.902;2023-03-21T09:59:30;100698.06;;;10.16;100.00
4836;BME280;66719;51.226;6.902;2023-03-21T10:01:59;100700.66;;;10.15;100.00
4836;BME280;66719;51.226;6.902;2023-03-21T10:04:27;100699.81;;;10.14;100.00
4836;BME280;66719;51.226;6.902;2023-03-21T10:06:57;100697.16;;;10.17;100.00
4836;BME280;66719;51.226;6.902;2023-03-21T10:09:27;100692.75;;;10.19;100.00
4836;BME280;66719;51.226;6.902;2023-03-21T10:12:05;100695.22;;;10.30;100.00
4836;BME280;66719;51.226;6.902;2023-03-21T10:14:38;100689.84;;;10.38;100.00
4836;BME280;66719;51.226;6.902;2023-03-21T10:22:37;100693.00;;;10.55;100.00
4836;BME280;66719;51.226;6.902;2023-03-21T10:25:05;100686.97;;;10.50;100.00
4836;BME280;66719;51.226;6.902;2023-03-21T10:27:33;100697.41;;;10.53;100.00
4836;BME280;66719;51.226;6.902;2023-03-21T10:30:03;100686.91;;;10.55;100.00
4836;BME280;66719;51.226;6.902;2023-03-21T10:32:32;100679.84;;;10.58;100.00
4836;BME280;66719;51.226;6.902;2023-03-21T10:35:00;100682.44;;;10.60;100.00
4836;BME280;66719;51.226;6.902;2023-03-21T10:37:30;100671.88;;;10.64;100.00
4836;BME280;66719;51.226;6.902;2023-03-21T10:39:57;100660.44;;;10.68;100.00
4836;BME280;66719;51.226;6.902;2023-03-21T10:42:27;100648.19;;;10.70;100.00
4836;BME280;66719;51.226;6.902;2023-03-21T10:44:55;100643.88;;;10.68;100.00
4836;BME280;66719;51.226;6.902;2023-03-21T10:47:30;100645.53;;;10.72;100.00
4836;BME280;66719;51.226;6.902;2023-03-21T10:50:07;100641.06;;;10.77;100.00
4836;BME280;66719;51.226;6.902;2023-03-21T10:52:44;100634.94;;;10.78;100.00
4836;BME280;66719;51.226;6.902;2023-03-21T10:55:27;100636.75;;;10.74;100.00
4836;BME280;66719;51.226;6.902;2023-03-21T10:58:04;100632.34;;;10.78;100.00
4836;BME280;66719;51.226;6.902;2023-03-21T11:00:39;100635.81;;;10.77;100.00
4836;BME280;66719;51.226;6.902;2023-03-21T11:03:19;100622.81;;;10.74;100.00
4836;BME280;66719;51.226;6.902;2023-03-21T11:05:47;100623.63;;;10.76;100.00
4836;BME280;66719;51.226;6.902;2023-03-21T11:08:16;100619.16;;;10.81;100.00
4836;BME280;66719;51.226;6.902;2023-03-21T11:13:26;100624.97;;;10.94;100.00
4836;BME280;66719;51.226;6.902;2023-03-21T11:15:57;100617.13;;;10.95;100.00
4836;BME280;66719;51.226;6.902;2023-03-21T11:18:30;100629.38;;;10.93;100.00
4836;BME280;66719;51.226;6.902;2023-03-21T11:21:04;100635.47;;;10.94;100.00
4836;BME280;66719;51.226;6.902;2023-03-21T11:23:33;100625.81;;;10.97;100.00
4836;BME280;66719;51.226;6.902;2023-03-21T11:26:01;100623.09;;;11.00;100.00
4836;BME280;66719;51.226;6.902;2023-03-21T11:28:35;100626.53;;;11.02;100.00
4836;BME280;66719;51.226;6.902;2023-03-21T11:31:03;100626.50;;;11.06;100.00
4836;BME280;66719;51.226;6.902;2023-03-21T11:33:40;100621.09;;;11.12;100.00
4836;BME280;66719;51.226;6.902;2023-03-21T11:38:53;100631.56;;;11.13;100.00
4836;BME280;66719;51.226;6.902;2023-03-21T11:41:24;100626.28;;;11.15;100.00
4836;BME280;66719;51.226;6.902;2023-03-21T11:43:55;100623.59;;;11.18;100.00
4836;BME280;66719;51.226;6.902;2023-03-21T11:46:27;100621.09;;;11.13;100.00
4836;BME280;66719;51.226;6.902;2023-03-21T11:48:55;100635.09;;;11.12;100.00
4836;BME280;66719;51.226;6.902;2023-03-21T11:54:35;100624.81;;;11.01;100.00
4836;BME280;66719;51.226;6.902;2023-03-21T11:57:24;100630.97;;;11.00;100.00
4836;BME280;66719;51.226;6.902;2023-03-21T12:00:08;100615.25;;;11.00;100.00
4836;BME280;66719;51.226;6.902;2023-03-21T12:10:29;100597.72;;;11.02;100.00
4836;BME280;66719;51.226;6.902;2023-03-21T12:21:25;100614.41;;;10.98;100.00
4836;BME280;66719;51.226;6.902;2023-03-21T12:26:54;100614.53;;;10.92;100.00
4836;BME280;66719;51.226;6.902;2023-03-21T12:32:11;100604.19;;;10.88;100.00
4836;BME280;66719;51.226;6.902;2023-03-21T12:35:11;100598.13;;;10.84;100.00
4836;BME280;66719;51.226;6.902;2023-03-21T12:46:33;100588.44;;;10.89;100.00
4836;BME280;66719;51.226;6.902;2023-03-21T12:49:00;100574.25;;;10.98;100.00
4836;BME280;66719;51.226;6.902;2023-03-21T12:51:31;100575.03;;;11.01;100.00
4836;BME280;66719;51.226;6.902;2023-03-21T12:54:17;100562.84;;;11.00;100.00
4836;BME280;66719;51.226;6.902;2023-03-21T12:57:05;100558.41;;;11.04;100.00
4836;BME280;66719;51.226;6.902;2023-03-21T12:59:37;100547.00;;;11.07;100.00
4836;BME280;66719;51.226;6.902;2023-03-21T13:02:27;100558.34;;;11.07;100.00
4836;BME280;66719;51.226;6.902;2023-03-21T13:07:28;100547.81;;;11.09;100.00
4836;BME280;66719;51.226;6.902;2023-03-21T13:09:59;100548.72;;;11.08;100.00
4836;BME280;66719;51.226;6.902;2023-03-21T13:12:39;100557.41;;;11.10;100.00
4836;BME280;66719;51.226;6.902;2023-03-21T13:15:29;100542.47;;;11.13;100.00
4836;BME280;66719;51.226;6.902;2023-03-21T13:23:10;100531.13;;;11.13;100.00
4836;BME280;66719;51.226;6.902;2023-03-21T13:25:45;100526.97;;;11.04;100.00
4836;BME280;66719;51.226;6.902;2023-03-21T13:28:26;100529.56;;;11.06;100.00
4836;BME280;66719;51.226;6.902;2023-03-21T13:31:17;100511.03;;;11.12;100.00
4836;BME280;66719;51.226;6.902;2023-03-21T13:33:47;100508.25;;;11.19;100.00
4836;BME280;66719;51.226;6.902;2023-03-21T13:36:21;100513.28;;;11.27;100.00
4836;BME280;66719;51.226;6.902;2023-03-21T13:38:50;100523.72;;;11.30;100.00
4836;BME280;66719;51.226;6.902;2023-03-21T13:41:30;100522.59;;;11.40;100.00
4836;BME280;66719;51.226;6.902;2023-03-21T13:54:00;100503.38;;;11.74;100.00
4836;BME280;66719;51.226;6.902;2023-03-21T13:56:26;100497.13;;;11.78;100.00
4836;BME280;66719;51.226;6.902;2023-03-21T13:59:00;100492.78;;;11.77;100.00
4836;BME280;66719;51.226;6.902;2023-03-21T14:04:40;100497.25;;;11.73;100.00
4836;BME280;66719;51.226;6.902;2023-03-21T14:07:28;100493.88;;;11.68;100.00
4836;BME280;66719;51.226;6.902;2023-03-21T14:10:03;100501.66;;;11.71;100.00
4836;BME280;66719;51.226;6.902;2023-03-21T14:12:39;100494.84;;;11.66;100.00
4836;BME280;66719;51.226;6.902;2023-03-21T14:15:16;100485.97;;;11.70;100.00
4836;BME280;66719;51.226;6.902;2023-03-21T14:17:59;100485.97;;;11.70;100.00
4836;BME280;66719;51.226;6.902;2023-03-21T14:20:54;100495.56;;;11.71;100.00
4836;BME280;66719;51.226;6.902;2023-03-21T14:23:22;100491.16;;;11.73;100.00
4836;BME280;66719;51.226;6.902;2023-03-21T14:25:49;100486.66;;;11.76;100.00
4836;BME280;66719;51.226;6.902;2023-03-21T14:28:24;100476.06;;;11.81;100.00
4836;BME280;66719;51.226;6.902;2023-03-21T14:30:53;100476.81;;;11.86;100.00
4836;BME280;66719;51.226;6.902;2023-03-21T14:33:26;100487.22;;;11.89;100.00
4836;BME280;66719;51.226;6.902;2023-03-21T14:35:57;100469.75;;;11.88;100.00
4836;BME280;66719;51.226;6.902;2023-03-21T14:38:26;100479.38;;;11.87;100.00
4836;BME280;66719;51.226;6.902;2023-03-21T14:40:57;100489.06;;;11.85;100.00
4836;BME280;66719;51.226;6.902;2023-03-21T14:43:25;100494.28;;;11.87;100.00
4836;BME280;66719;51.226;6.902;2023-03-21T14:45:53;100495.09;;;11.89;100.00
4836;BME280;66719;51.226;6.902;2023-03-21T14:48:33;100485.44;;;11.89;100.00
4836;BME280;66719;51.226;6.902;2023-03-21T14:51:02;100485.53;;;11.86;100.00
4836;BME280;66719;51.226;6.902;2023-03-21T14:53:38;100490.03;;;11.83;100.00
4836;BME280;66719;51.226;6.902;2023-03-21T14:56:08;100484.63;;;11.87;100.00